createdAt,value
2018-07-13T00:02:17.571Z,4.45
2018-07-13T00:07:22.351Z,3.33
2018-07-13T00:12:27.326Z,5.70
2018-07-13T00:17:32.663Z,4.05
2018-07-13T00:22:37.418Z,5.03
2018-07-13T00:27:42.181Z,6.15
2018-07-13T00:32:47.088Z,5.37
2018-07-13T00:37:51.877Z,3.42
2018-07-13T00:42:56.420Z,3.75
2018-07-13T00:48:01.318Z,4.47
2018-07-13T00:53:06.285Z,4.25
2018-07-13T00:58:11.201Z,5.50
2018-07-13T01:03:15.937Z,4.33
2018-07-13T01:08:20.499Z,5.37
2018-07-13T01:13:25.226Z,5.22
2018-07-13T01:18:29.987Z,4.50
2018-07-13T01:23:34.691Z,3.62
2018-07-13T01:28:39.651Z,4.03
2018-07-13T01:33:44.378Z,5.42
2018-07-13T01:38:48.919Z,5.30
2018-07-13T01:43:53.759Z,5.28
2018-07-13T01:48:58.345Z,6.08
2018-07-13T01:54:03.122Z,6.90
2018-07-13T01:59:07.890Z,3.92
2018-07-13T02:04:12.685Z,3.90
2018-07-13T02:09:17.441Z,5.60
2018-07-13T02:14:22.084Z,4.50
2018-07-13T02:19:26.970Z,6.00
2018-07-13T02:24:31.785Z,4.67
2018-07-13T02:29:36.527Z,4.10
2018-07-13T02:34:41.476Z,3.80
2018-07-13T02:39:46.330Z,5.35
2018-07-13T02:44:50.563Z,5.22
2018-07-13T02:49:55.212Z,5.05
2018-07-13T02:54:59.926Z,5.03
2018-07-13T03:00:04.904Z,5.80
2018-07-13T03:05:09.622Z,6.72
2018-07-13T03:10:14.346Z,4.92
2018-07-13T03:15:19.462Z,5.55
2018-07-13T03:20:24.969Z,5.15
2018-07-13T03:25:29.682Z,5.70
2018-07-13T03:30:34.359Z,5.35
2018-07-13T03:35:39.062Z,5.75
2018-07-13T03:40:43.828Z,5.72
2018-07-13T03:45:48.640Z,5.30
2018-07-13T03:50:53.490Z,7.92
2018-07-13T03:55:58.289Z,5.50
2018-07-13T04:01:03.099Z,5.70
2018-07-13T04:06:07.855Z,9.13
2018-07-13T04:11:12.611Z,8.45
2018-07-13T04:16:17.625Z,6.10
2018-07-13T04:21:22.903Z,5.78
2018-07-13T04:26:27.723Z,8.78
2018-07-13T04:31:32.476Z,6.40
2018-07-13T04:36:37.245Z,7.97
2018-07-13T04:41:42.603Z,5.55
2018-07-13T04:46:48.482Z,5.72
2018-07-13T04:51:53.476Z,6.75
2018-07-13T04:56:58.412Z,9.25
2018-07-13T05:02:03.299Z,9.08
2018-07-13T05:07:08.424Z,9.15
2018-07-13T05:12:13.263Z,8.83
2018-07-13T05:17:18.301Z,7.22
2018-07-13T05:22:23.023Z,6.78
2018-07-13T05:27:28.180Z,6.28
2018-07-13T05:32:33.065Z,5.67
2018-07-13T05:37:37.884Z,7.37
2018-07-13T05:42:42.817Z,7.25
2018-07-13T05:47:47.674Z,5.30
2018-07-13T05:52:52.664Z,7.78
2018-07-13T05:57:57.496Z,6.40
2018-07-13T06:03:02.514Z,8.10
2018-07-13T06:08:07.374Z,7.03
2018-07-13T06:13:13.155Z,6.95
2018-07-13T06:18:17.979Z,7.03
2018-07-13T06:23:22.729Z,8.80
2018-07-13T06:28:27.457Z,6.72
2018-07-13T06:33:32.500Z,6.90
2018-07-13T06:38:37.336Z,7.25
2018-07-13T06:43:41.983Z,7.65
2018-07-13T06:48:46.839Z,6.28
2018-07-13T06:53:52.376Z,7.15
2018-07-13T06:59:05.043Z,7.22
2018-07-13T07:04:29.322Z,11.05
2018-07-13T07:09:33.967Z,7.40
2018-07-13T07:14:38.895Z,7.62
2018-07-13T07:19:43.245Z,10.75
2018-07-13T07:24:48.545Z,8.08
2018-07-13T07:29:53.315Z,7.78
2018-07-13T07:34:57.827Z,6.40
2018-07-13T07:40:02.887Z,6.75
2018-07-13T07:45:07.731Z,7.90
2018-07-13T07:50:12.490Z,12.82
2018-07-13T07:55:17.523Z,8.23
2018-07-13T08:00:22.354Z,8.83
2018-07-13T08:05:27.315Z,6.08
2018-07-13T08:10:32.181Z,6.42
2018-07-13T08:15:36.915Z,8.13
2018-07-13T08:20:46.697Z,7.00
2018-07-13T08:25:51.944Z,7.05
2018-07-13T08:30:59.661Z,9.58
2018-07-13T08:36:04.683Z,7.78
2018-07-13T08:41:09.906Z,9.83
2018-07-13T08:46:14.601Z,7.17
2018-07-13T08:51:19.866Z,6.83
2018-07-13T08:56:24.839Z,6.95
2018-07-13T09:01:29.696Z,7.15
2018-07-13T09:06:33.917Z,8.73
2018-07-13T09:11:38.551Z,6.78
2018-07-13T09:16:43.490Z,7.55
2018-07-13T09:21:48.256Z,8.93
2018-07-13T09:26:53.092Z,7.03
2018-07-13T09:31:58.529Z,6.87
2018-07-13T09:37:03.962Z,6.70
2018-07-13T09:42:09.206Z,7.80
2018-07-13T09:47:14.620Z,6.78
2018-07-13T09:52:19.215Z,10.32
2018-07-13T09:57:24.579Z,7.42
2018-07-13T10:02:29.380Z,6.45
2018-07-13T10:07:35.008Z,7.30
2018-07-13T10:12:39.911Z,7.35
2018-07-13T10:17:44.984Z,8.95
2018-07-13T10:22:49.940Z,5.72
2018-07-13T10:27:55.379Z,4.90
2018-07-13T10:33:00.703Z,6.47
2018-07-13T10:38:05.782Z,5.75
2018-07-13T10:43:11.287Z,5.60
2018-07-13T10:48:16.883Z,6.83
2018-07-13T10:53:21.539Z,6.72
2018-07-13T10:58:26.238Z,4.62
2018-07-13T11:03:30.830Z,4.20
2018-07-13T11:08:35.862Z,7.12
2018-07-13T11:13:40.771Z,3.27
2018-07-13T11:18:46.037Z,4.97
2018-07-13T11:23:51.526Z,4.53
2018-07-13T11:28:56.427Z,5.75
2018-07-13T11:34:01.297Z,3.35
2018-07-13T11:39:07.681Z,4.53
2018-07-13T11:44:12.984Z,5.53
2018-07-13T11:49:17.984Z,3.62
2018-07-13T11:54:22.856Z,3.33
2018-07-13T11:59:27.911Z,3.50
2018-07-13T12:04:32.617Z,4.83
2018-07-13T12:09:36.942Z,2.58
2018-07-13T12:14:41.776Z,3.25
2018-07-13T12:19:46.822Z,2.77
2018-07-13T12:24:52.465Z,2.52
2018-07-13T12:29:57.188Z,2.15
2018-07-13T12:35:01.828Z,1.82
2018-07-13T12:40:06.569Z,1.67
2018-07-13T12:45:11.253Z,2.37
2018-07-13T12:50:17.733Z,4.47
2018-07-13T12:55:23.203Z,2.60
2018-07-13T13:00:28.160Z,2.10
2018-07-13T13:05:32.892Z,2.95
2018-07-13T13:10:37.893Z,2.52
2018-07-13T13:15:42.648Z,2.52
2018-07-13T13:20:48.194Z,4.22
2018-07-13T13:25:52.984Z,2.20
2018-07-13T13:30:57.742Z,1.90
2018-07-13T13:36:02.849Z,2.27
2018-07-13T13:41:07.473Z,1.65
2018-07-13T13:46:12.017Z,1.85
2018-07-13T13:51:17.807Z,2.62
2018-07-13T13:56:22.735Z,1.80
2018-07-13T14:01:27.361Z,1.75
2018-07-13T14:06:32.201Z,1.67
2018-07-13T14:11:36.733Z,2.12
2018-07-13T14:16:40.864Z,2.12
2018-07-13T14:21:45.605Z,2.58
2018-07-13T14:26:51.394Z,1.67
2018-07-13T14:31:56.300Z,1.75
2018-07-13T14:37:01.254Z,2.47
2018-07-13T14:42:05.959Z,3.52
2018-07-13T14:47:11.074Z,3.42
2018-07-13T14:52:16.276Z,1.60
2018-07-13T14:57:21.337Z,2.47
2018-07-13T15:02:26.156Z,1.75
2018-07-13T15:07:31.083Z,1.72
2018-07-13T15:12:36.032Z,3.92
2018-07-13T15:17:40.768Z,1.67
2018-07-13T15:22:45.625Z,5.25
2018-07-13T15:27:50.305Z,2.87
2018-07-13T15:32:55.249Z,1.75
2018-07-13T15:38:00.326Z,1.70
2018-07-13T15:43:04.940Z,2.02
2018-07-13T15:48:10.010Z,2.27
2018-07-13T15:53:15.331Z,2.87
2018-07-13T15:58:20.255Z,2.80
2018-07-13T16:03:25.421Z,2.17
2018-07-13T16:08:30.199Z,2.67
2018-07-13T16:13:35.189Z,1.52
2018-07-13T16:18:40.958Z,1.77
2018-07-13T16:23:46.853Z,3.10
2018-07-13T16:28:51.699Z,1.60
2018-07-13T16:33:57.559Z,1.55
2018-07-13T16:39:02.401Z,1.82
2018-07-13T16:44:07.002Z,3.58
2018-07-13T16:49:11.948Z,1.50
2018-07-13T16:54:17.017Z,1.65
2018-07-13T16:59:21.755Z,2.37
2018-07-13T17:04:27.115Z,1.98
2018-07-13T17:09:32.223Z,2.80
2018-07-13T17:14:37.016Z,2.75
2018-07-13T17:19:41.855Z,2.75
2018-07-13T17:24:46.884Z,1.85
2018-07-13T17:29:51.897Z,1.85
2018-07-13T17:34:56.284Z,3.10
2018-07-13T17:40:01.280Z,2.27
2018-07-13T17:45:06.346Z,1.77
2018-07-13T17:50:11.135Z,3.85
2018-07-13T17:55:16.381Z,2.02
2018-07-13T18:00:21.464Z,2.77
2018-07-13T18:05:26.303Z,2.85
2018-07-13T18:10:31.064Z,2.58
2018-07-13T18:15:36.239Z,5.42
2018-07-13T18:20:41.984Z,2.05
2018-07-13T18:25:47.483Z,1.82
2018-07-13T18:30:52.364Z,5.00
2018-07-13T18:35:57.214Z,4.50
2018-07-13T18:41:01.908Z,2.50
2018-07-13T18:46:06.875Z,2.72
2018-07-13T18:51:11.731Z,2.45
2018-07-13T18:56:17.711Z,4.37
2018-07-13T19:01:22.509Z,3.20
2018-07-13T19:06:27.865Z,3.15
2018-07-13T19:11:34.060Z,2.40
2018-07-13T19:16:38.761Z,2.58
2018-07-13T19:21:43.547Z,2.67
2018-07-13T19:26:48.417Z,4.55
2018-07-13T19:31:53.503Z,4.08
2018-07-13T19:36:58.728Z,2.75
2018-07-13T19:42:03.831Z,2.67
2018-07-13T19:47:08.639Z,2.40
2018-07-13T19:52:13.494Z,2.50
2018-07-13T19:57:18.492Z,3.25
2018-07-13T20:02:23.229Z,2.65
2018-07-13T20:07:30.566Z,3.02
2018-07-13T20:12:35.057Z,3.87
2018-07-13T20:17:44.531Z,3.55
2018-07-13T20:22:49.610Z,5.15
2018-07-13T20:27:54.569Z,3.58
2018-07-13T20:32:59.476Z,2.55
2018-07-13T20:38:04.629Z,4.03
2018-07-13T20:43:09.745Z,2.80
2018-07-13T20:48:15.741Z,2.42
2018-07-13T20:53:20.785Z,3.80
2018-07-13T20:58:25.855Z,3.05
2018-07-13T21:03:30.835Z,2.98
2018-07-13T21:08:35.413Z,5.40
2018-07-13T21:13:40.690Z,2.50
2018-07-13T21:18:45.861Z,3.42
2018-07-13T21:23:50.408Z,2.95
2018-07-13T21:28:54.942Z,4.15
2018-07-13T21:33:59.720Z,4.70
2018-07-13T21:39:05.457Z,4.53
2018-07-13T21:44:10.426Z,3.40
2018-07-13T21:49:15.326Z,3.60
2018-07-13T21:54:20.151Z,3.65
2018-07-13T21:59:24.778Z,7.08
2018-07-13T22:04:29.496Z,3.70
2018-07-13T22:09:34.261Z,4.20
2018-07-13T22:14:39.594Z,3.85
2018-07-13T22:19:44.297Z,3.85
2018-07-13T22:24:49.040Z,5.75
2018-07-13T22:29:54.152Z,6.65
2018-07-13T22:34:58.725Z,3.80
2018-07-13T22:40:03.472Z,5.50
2018-07-13T22:45:08.096Z,5.33
2018-07-13T22:50:12.978Z,4.45
2018-07-13T22:55:17.589Z,4.50
2018-07-13T23:00:22.404Z,5.00
2018-07-13T23:05:32.709Z,4.00
2018-07-13T23:10:37.733Z,3.98
2018-07-13T23:15:42.340Z,3.25
2018-07-13T23:20:47.285Z,4.50
2018-07-13T23:25:51.845Z,5.17
2018-07-13T23:30:56.764Z,4.95
2018-07-13T23:36:01.591Z,5.22
2018-07-13T23:41:06.340Z,4.37
2018-07-13T23:46:11.088Z,4.10
2018-07-13T23:51:15.812Z,3.80
2018-07-13T23:56:20.628Z,3.90
